Time;durP1;ratioP1;P1;durP2;ratioP2;P2;SDS_P1;SDS_P2;PMS_P1;PMS_P2;Temp;Humidity;BMP_temperature;BMP_pressure;BME280_temperature;BME280_humidity;BME280_pressure;Samples;Min_cycle;Max_cycle;Signal;HPM_P1;HPM_P2
2022/03/08 00:00:43;;;;;;;10.65;5.75;;;1.00;99.90;;;;;;5034130;28;20500;-73
2022/03/08 00:03:09;;;;;;;11.90;5.78;;;1.10;99.90;;;;;;5047392;28;20112;-74
2022/03/08 00:05:34;;;;;;;10.80;5.70;;;1.10;99.90;;;;;;5030709;28;20037;-73
2022/03/08 00:08:00;;;;;;;10.43;5.70;;;1.10;99.90;;;;;;5039903;28;20029;-73
2022/03/08 00:10:26;;;;;;;10.40;5.22;;;1.20;99.90;;;;;;5051794;28;20616;-73
2022/03/08 00:12:52;;;;;;;11.63;5.90;;;1.30;99.90;;;;;;5048637;28;20059;-73
2022/03/08 00:15:24;;;;;;;9.73;5.50;;;1.40;99.90;;;;;;5052108;28;20048;-73
2022/03/08 00:17:51;;;;;;;12.20;5.45;;;1.50;99.90;;;;;;5033956;28;20037;-73
2022/03/08 00:20:17;;;;;;;11.68;6.22;;;1.50;99.90;;;;;;5035160;28;20090;-73
2022/03/08 00:22:43;;;;;;;10.90;6.25;;;1.60;99.90;;;;;;5050877;28;20123;-73
2022/03/08 00:25:12;;;;;;;9.70;5.55;;;1.60;99.90;;;;;;5052002;28;20033;-73
2022/03/08 00:27:38;;;;;;;10.55;5.90;;;1.50;99.90;;;;;;5034590;28;20049;-73
2022/03/08 00:30:05;;;;;;;10.70;6.20;;;1.40;99.90;;;;;;5035132;28;20041;-73
2022/03/08 00:32:31;;;;;;;12.18;6.18;;;1.40;99.90;;;;;;5049637;28;20119;-73
2022/03/08 00:34:57;;;;;;;10.45;5.72;;;1.40;99.90;;;;;;5055081;28;20143;-73
2022/03/08 00:37:22;;;;;;;11.02;5.63;;;1.30;99.90;;;;;;5053601;28;20134;-73
2022/03/08 00:39:48;;;;;;;10.60;5.88;;;1.30;99.90;;;;;;5054404;28;20111;-73
2022/03/08 00:42:14;;;;;;;12.45;6.25;;;1.20;99.90;;;;;;5072489;28;20128;-73
2022/03/08 00:44:40;;;;;;;10.63;5.50;;;1.10;99.90;;;;;;5038332;28;20120;-73
2022/03/08 00:47:06;;;;;;;10.90;6.15;;;1.10;99.90;;;;;;5055556;28;20037;-73
2022/03/08 00:49:32;;;;;;;10.23;5.55;;;1.10;99.90;;;;;;5029478;28;20088;-73
2022/03/08 00:51:57;;;;;;;11.27;6.22;;;1.00;99.90;;;;;;5052286;28;20049;-73
2022/03/08 00:54:23;;;;;;;10.48;5.82;;;0.90;99.90;;;;;;5035554;28;20052;-73
2022/03/08 00:56:49;;;;;;;11.85;6.13;;;0.90;99.90;;;;;;5064235;28;20041;-73
2022/03/08 00:59:15;;;;;;;10.82;5.32;;;0.90;99.90;;;;;;5027106;28;20029;-73
2022/03/08 01:01:40;;;;;;;10.55;5.63;;;0.90;99.90;;;;;;5035331;28;20124;-73
2022/03/08 01:04:06;;;;;;;10.30;5.53;;;0.80;99.90;;;;;;5052428;28;20413;-73
2022/03/08 01:06:32;;;;;;;8.98;5.75;;;0.80;99.90;;;;;;5034403;28;20030;-73
2022/03/08 01:08:57;;;;;;;9.88;5.68;;;0.80;99.90;;;;;;5057946;28;20036;-73
2022/03/08 01:11:23;;;;;;;10.52;5.68;;;0.80;99.90;;;;;;5055308;28;20063;-73
2022/03/08 01:13:49;;;;;;;11.32;6.13;;;0.80;99.90;;;;;;5055119;28;20040;-73
2022/03/08 01:16:14;;;;;;;11.48;6.55;;;0.80;99.90;;;;;;5038667;28;20116;-73
2022/03/08 01:18:40;;;;;;;11.18;6.05;;;0.70;99.90;;;;;;5037761;28;20033;-73
2022/03/08 01:21:05;;;;;;;12.57;5.95;;;0.70;99.90;;;;;;5054839;28;20126;-73
2022/03/08 01:23:31;;;;;;;11.77;6.25;;;0.70;99.90;;;;;;5037918;28;20132;-73
2022/03/08 01:25:57;;;;;;;10.00;5.45;;;0.70;99.90;;;;;;5038576;28;20128;-73
2022/03/08 01:28:22;;;;;;;12.45;6.03;;;0.60;99.90;;;;;;5030916;28;20497;-73
2022/03/08 01:30:48;;;;;;;10.52;5.85;;;0.60;99.90;;;;;;5054887;28;20032;-73
2022/03/08 01:33:15;;;;;;;10.43;5.63;;;0.60;99.90;;;;;;5037149;28;20393;-73
2022/03/08 01:35:40;;;;;;;11.55;6.03;;;0.60;99.90;;;;;;5071141;28;20052;-73
2022/03/08 01:38:06;;;;;;;14.10;6.28;;;0.60;99.90;;;;;;5043520;28;20052;-73
2022/03/08 01:40:31;;;;;;;11.40;5.90;;;0.50;99.90;;;;;;5037647;28;20033;-73
2022/03/08 01:42:57;;;;;;;10.95;5.85;;;0.50;99.90;;;;;;5054203;28;20127;-73
2022/03/08 01:45:25;;;;;;;10.98;5.90;;;0.60;99.90;;;;;;5037067;28;20401;-73
2022/03/08 01:47:51;;;;;;;10.43;5.78;;;0.60;99.90;;;;;;5069279;28;20033;-73
2022/03/08 01:50:17;;;;;;;10.27;6.35;;;0.60;99.90;;;;;;5054020;28;20409;-73
2022/03/08 01:52:43;;;;;;;10.75;5.65;;;0.60;99.90;;;;;;5037920;28;20370;-73
2022/03/08 01:55:10;;;;;;;9.57;5.47;;;0.70;99.90;;;;;;5053964;28;20049;-73
2022/03/08 01:57:36;;;;;;;9.65;5.60;;;0.60;99.90;;;;;;5053962;28;20124;-73
2022/03/08 02:00:06;;;;;;;10.95;5.00;;;0.60;99.90;;;;;;5037429;28;20526;-73
2022/03/08 02:02:31;;;;;;;13.07;5.43;;;0.60;99.90;;;;;;5053019;28;20043;-73
2022/03/08 02:04:57;;;;;;;11.63;5.68;;;0.60;99.90;;;;;;5054113;28;20037;-73
2022/03/08 02:07:24;;;;;;;11.45;5.68;;;0.40;99.90;;;;;;5052544;28;20056;-73
2022/03/08 02:09:49;;;;;;;10.13;5.43;;;0.40;99.90;;;;;;5024988;28;20091;-72
2022/03/08 02:12:15;;;;;;;10.65;5.65;;;0.40;99.90;;;;;;5023899;28;20029;-73
2022/03/08 02:14:44;;;;;;;11.13;5.43;;;0.40;99.90;;;;;;5053978;28;20059;-72
2022/03/08 02:17:10;;;;;;;11.10;5.05;;;0.40;99.90;;;;;;5052953;28;20460;-72
2022/03/08 02:19:35;;;;;;;11.10;5.63;;;0.50;99.90;;;;;;5037180;28;20045;-72
2022/03/08 02:22:01;;;;;;;9.75;5.32;;;0.60;99.90;;;;;;5036821;28;20064;-72
2022/03/08 02:24:27;;;;;;;10.48;5.60;;;0.50;99.90;;;;;;5069242;28;20041;-72
2022/03/08 02:26:52;;;;;;;10.77;5.20;;;0.50;99.90;;;;;;5054421;28;20106;-72
2022/03/08 02:29:18;;;;;;;11.90;5.75;;;0.50;99.90;;;;;;5053701;28;20120;-72
2022/03/08 02:31:44;;;;;;;9.25;5.03;;;0.60;99.90;;;;;;5035651;28;20041;-72
2022/03/08 02:34:09;;;;;;;11.30;5.38;;;0.50;99.90;;;;;;5053827;28;20392;-72
2022/03/08 02:36:35;;;;;;;9.95;5.55;;;0.50;99.90;;;;;;5053128;28;20055;-72
2022/03/08 02:39:01;;;;;;;11.05;5.90;;;0.50;99.90;;;;;;5052683;28;20041;-72
2022/03/08 02:41:27;;;;;;;12.68;6.43;;;0.50;99.90;;;;;;5053456;28;20033;-72
2022/03/08 02:43:52;;;;;;;11.25;6.30;;;0.30;99.90;;;;;;5051536;28;20040;-72
2022/03/08 02:46:18;;;;;;;10.77;5.88;;;0.20;99.90;;;;;;5051962;28;20040;-72
2022/03/08 02:48:43;;;;;;;10.52;6.20;;;0.10;99.90;;;;;;5053162;28;20042;-72
2022/03/08 02:51:09;;;;;;;12.30;7.05;;;0.10;99.90;;;;;;5069929;28;20040;-72
2022/03/08 02:53:35;;;;;;;10.55;5.75;;;0.10;99.90;;;;;;5036368;28;20037;-72
2022/03/08 02:56:02;;;;;;;11.50;6.03;;;0.10;99.90;;;;;;5036228;28;20033;-72
2022/03/08 02:58:27;;;;;;;10.95;5.85;;;0.10;99.90;;;;;;5052818;28;20045;-72
2022/03/08 03:00:53;;;;;;;11.90;6.03;;;0.10;99.90;;;;;;5036135;28;20406;-72
2022/03/08 03:03:19;;;;;;;11.35;5.88;;;0.00;99.90;;;;;;5036299;28;20140;-72
2022/03/08 03:05:44;;;;;;;10.35;5.32;;;0.00;99.90;;;;;;5052719;28;20033;-72
2022/03/08 03:08:10;;;;;;;11.63;5.50;;;0.00;99.90;;;;;;5052943;28;20386;-72
2022/03/08 03:10:36;;;;;;;11.13;6.25;;;0.10;99.90;;;;;;5036020;28;20045;-72
2022/03/08 03:13:02;;;;;;;11.82;5.85;;;0.10;99.90;;;;;;5052764;28;20037;-72
2022/03/08 03:15:29;;;;;;;11.52;5.40;;;0.10;99.90;;;;;;5031194;28;20468;-72
2022/03/08 03:17:54;;;;;;;11.45;5.88;;;0.10;99.90;;;;;;5036092;28;20120;-72
2022/03/08 03:20:21;;;;;;;10.50;6.05;;;0.10;99.90;;;;;;5052367;28;20128;-72
2022/03/08 03:22:48;;;;;;;10.70;6.00;;;0.10;99.90;;;;;;5035909;28;20086;-72
2022/03/08 03:25:15;;;;;;;11.35;6.35;;;0.20;99.90;;;;;;5036087;28;20036;-72
2022/03/08 03:27:42;;;;;;;10.32;5.55;;;0.10;99.90;;;;;;5052560;28;20124;-72
2022/03/08 03:30:11;;;;;;;13.25;6.28;;;0.10;99.90;;;;;;5051875;28;20040;-72
2022/03/08 03:32:37;;;;;;;11.60;6.05;;;0.10;99.90;;;;;;5052374;28;20093;-72
2022/03/08 03:35:04;;;;;;;12.13;6.72;;;0.10;99.90;;;;;;5035824;28;20427;-72
2022/03/08 03:37:30;;;;;;;14.18;6.47;;;0.10;99.90;;;;;;5068914;28;20136;-72
2022/03/08 03:39:55;;;;;;;10.50;6.10;;;0.10;99.90;;;;;;5035877;28;20080;-72
2022/03/08 03:42:21;;;;;;;11.57;6.10;;;0.10;99.90;;;;;;5035693;28;20033;-72
2022/03/08 03:44:46;;;;;;;13.15;6.95;;;0.10;99.90;;;;;;5052133;28;20056;-72
2022/03/08 03:47:12;;;;;;;13.18;7.20;;;0.10;99.90;;;;;;5049631;28;20122;-72
2022/03/08 03:49:37;;;;;;;13.43;6.97;;;0.10;99.90;;;;;;5052259;28;20408;-72
2022/03/08 03:52:04;;;;;;;14.55;8.02;;;0.00;99.90;;;;;;5048885;28;20084;-72
2022/03/08 03:54:30;;;;;;;13.73;7.18;;;0.00;99.90;;;;;;5051390;28;20045;-72
2022/03/08 03:56:55;;;;;;;15.23;7.95;;;0.00;99.90;;;;;;5035487;28;20127;-72
2022/03/08 03:59:21;;;;;;;13.23;7.88;;;0.00;99.90;;;;;;5051368;28;20040;-72
2022/03/08 04:01:46;;;;;;;13.57;8.25;;;0.00;99.90;;;;;;5035014;28;20037;-72
2022/03/08 04:04:12;;;;;;;14.32;7.28;;;0.00;99.90;;;;;;5051279;28;20036;-72
2022/03/08 04:06:37;;;;;;;15.35;7.60;;;0.00;99.90;;;;;;5035367;28;20029;-72
2022/03/08 04:09:04;;;;;;;16.77;8.02;;;0.00;99.90;;;;;;5043635;28;20029;-72
2022/03/08 04:11:29;;;;;;;14.18;7.57;;;0.10;99.90;;;;;;5044604;28;20128;-72
2022/03/08 04:13:55;;;;;;;13.95;7.80;;;0.10;99.90;;;;;;5051713;28;20127;-72
2022/03/08 04:16:20;;;;;;;12.77;7.25;;;0.20;99.90;;;;;;5034260;28;20090;-72
2022/03/08 04:18:46;;;;;;;13.13;7.22;;;0.20;99.90;;;;;;5051142;28;20037;-72
2022/03/08 04:21:12;;;;;;;15.15;7.95;;;0.20;99.90;;;;;;5051426;28;20045;-72
2022/03/08 04:23:37;;;;;;;14.80;8.23;;;0.20;99.90;;;;;;5034617;28;20040;-72
2022/03/08 04:26:03;;;;;;;13.10;7.18;;;0.30;99.90;;;;;;5051814;28;20048;-72
2022/03/08 04:28:28;;;;;;;12.85;7.15;;;0.30;99.90;;;;;;5051711;28;20092;-72
2022/03/08 04:30:54;;;;;;;14.80;7.28;;;0.20;99.90;;;;;;5051447;28;20086;-72
2022/03/08 04:33:19;;;;;;;17.08;8.23;;;0.20;99.90;;;;;;5015197;28;20040;-72
2022/03/08 04:35:45;;;;;;;15.48;7.93;;;0.20;99.90;;;;;;5036871;28;20056;-71
2022/03/08 04:38:11;;;;;;;14.90;7.63;;;0.20;99.90;;;;;;5051609;28;20045;-71
2022/03/08 04:40:36;;;;;;;15.23;8.55;;;0.30;99.90;;;;;;5050932;28;20029;-72
2022/03/08 04:43:02;;;;;;;15.32;8.38;;;0.30;99.90;;;;;;5051557;28;20045;-72
2022/03/08 04:45:28;;;;;;;15.63;8.75;;;0.30;99.90;;;;;;5050242;28;20037;-72
2022/03/08 04:47:53;;;;;;;14.52;8.63;;;0.40;99.90;;;;;;5051533;28;20489;-72
2022/03/08 04:50:19;;;;;;;16.23;8.68;;;0.40;99.90;;;;;;5051322;28;20048;-72
2022/03/08 04:52:46;;;;;;;15.82;8.45;;;0.40;99.90;;;;;;5068236;28;20044;-72
2022/03/08 04:55:12;;;;;;;15.55;8.77;;;0.30;99.90;;;;;;5068142;28;20052;-72
2022/03/08 04:57:39;;;;;;;15.98;8.85;;;0.30;99.90;;;;;;5051481;28;20041;-72
2022/03/08 05:00:08;;;;;;;17.23;9.32;;;0.30;99.90;;;;;;5051696;28;20041;-72
2022/03/08 05:02:34;;;;;;;16.10;9.23;;;0.30;99.90;;;;;;5067910;28;20127;-71
2022/03/08 05:04:59;;;;;;;16.58;8.30;;;0.40;99.90;;;;;;5068005;28;20124;-72
2022/03/08 05:07:25;;;;;;;15.13;8.82;;;0.50;99.90;;;;;;5018340;28;20089;-72
2022/03/08 05:09:50;;;;;;;17.15;8.80;;;0.50;99.90;;;;;;5031531;28;20033;-72
2022/03/08 05:12:16;;;;;;;17.83;8.55;;;0.40;99.90;;;;;;5063720;28;20044;-72
2022/03/08 05:14:41;;;;;;;17.58;9.68;;;0.50;99.90;;;;;;5051250;28;20543;-72
2022/03/08 05:17:07;;;;;;;16.52;8.60;;;0.60;99.90;;;;;;5049087;28;20075;-72
2022/03/08 05:19:33;;;;;;;15.15;8.32;;;0.60;99.90;;;;;;5052129;28;20128;-72
2022/03/08 05:21:59;;;;;;;17.08;9.02;;;0.60;99.90;;;;;;5056122;28;20468;-72
2022/03/08 05:24:25;;;;;;;15.57;8.45;;;0.80;99.90;;;;;;5053184;28;20041;-72
2022/03/08 05:26:50;;;;;;;17.77;8.65;;;0.80;99.90;;;;;;5043261;28;20043;-72
2022/03/08 05:29:16;;;;;;;15.27;8.95;;;0.90;99.90;;;;;;5035049;28;20041;-72
2022/03/08 05:31:41;;;;;;;16.45;9.18;;;1.00;99.90;;;;;;5034836;28;20041;-72
2022/03/08 05:34:07;;;;;;;15.75;8.57;;;1.00;99.90;;;;;;5041334;28;20036;-72
2022/03/08 05:36:34;;;;;;;16.55;8.77;;;1.10;99.90;;;;;;5054518;28;20136;-72
2022/03/08 05:39:00;;;;;;;16.33;9.27;;;1.10;99.90;;;;;;5037731;28;20041;-72
2022/03/08 05:41:25;;;;;;;15.43;8.50;;;1.00;99.90;;;;;;5054534;28;20064;-72
2022/03/08 05:43:51;;;;;;;21.10;8.82;;;1.00;99.90;;;;;;5053430;28;20028;-72
2022/03/08 05:46:16;;;;;;;17.92;8.98;;;1.00;99.90;;;;;;5052891;28;20043;-72
2022/03/08 05:48:42;;;;;;;16.83;9.02;;;0.90;99.90;;;;;;5053818;28;20084;-72
2022/03/08 05:51:07;;;;;;;14.88;8.57;;;0.80;99.90;;;;;;5054667;28;20041;-72
2022/03/08 05:53:33;;;;;;;14.10;8.27;;;0.80;99.90;;;;;;5053326;28;20044;-72
2022/03/08 05:55:58;;;;;;;16.73;8.88;;;0.70;99.90;;;;;;5037194;28;20036;-72
2022/03/08 05:58:24;;;;;;;16.58;9.32;;;0.70;99.90;;;;;;5037196;28;20048;-72
2022/03/08 06:00:49;;;;;;;17.42;8.95;;;0.60;99.90;;;;;;5037237;28;20243;-72
2022/03/08 06:03:15;;;;;;;16.05;9.60;;;0.60;99.90;;;;;;5035642;28;20032;-72
2022/03/08 06:05:41;;;;;;;17.75;8.93;;;0.50;99.90;;;;;;5037356;28;20037;-72
2022/03/08 06:08:06;;;;;;;14.95;8.20;;;0.60;99.90;;;;;;5070766;28;20087;-72
2022/03/08 06:10:36;;;;;;;14.77;8.57;;;0.60;99.90;;;;;;5070034;28;20040;-72
2022/03/08 06:13:02;;;;;;;18.73;9.90;;;0.70;99.90;;;;;;5037373;28;20039;-72
2022/03/08 06:15:27;;;;;;;15.52;8.75;;;0.70;99.90;;;;;;5060975;28;20076;-72
2022/03/08 06:17:53;;;;;;;17.05;8.93;;;0.90;99.90;;;;;;5053216;28;20045;-72
2022/03/08 06:20:19;;;;;;;16.33;8.77;;;0.80;99.90;;;;;;5053947;28;20048;-72
2022/03/08 06:22:44;;;;;;;15.75;9.25;;;0.80;99.90;;;;;;5037407;28;20473;-72
2022/03/08 06:25:11;;;;;;;16.33;8.85;;;0.80;99.90;;;;;;5036208;28;20044;-72
2022/03/08 06:27:37;;;;;;;17.98;10.50;;;0.80;99.90;;;;;;5070448;28;20041;-72
2022/03/08 06:30:03;;;;;;;18.80;9.43;;;0.70;99.90;;;;;;5053793;28;20183;-72
2022/03/08 06:32:29;;;;;;;17.00;9.77;;;0.80;99.90;;;;;;5069334;28;20048;-72
2022/03/08 06:34:54;;;;;;;15.85;9.02;;;0.70;99.90;;;;;;5069991;28;20041;-72
2022/03/08 06:37:20;;;;;;;16.90;9.88;;;0.70;99.90;;;;;;5036830;28;20394;-72
2022/03/08 06:39:46;;;;;;;20.70;10.43;;;0.80;99.90;;;;;;5052084;28;20059;-72
2022/03/08 06:42:12;;;;;;;16.15;9.75;;;0.80;99.90;;;;;;5053470;28;20099;-72
2022/03/08 06:44:39;;;;;;;17.33;10.73;;;0.90;99.90;;;;;;5049578;28;20044;-72
2022/03/08 06:47:08;;;;;;;16.02;9.80;;;0.90;99.90;;;;;;5027518;28;20052;-72
2022/03/08 06:49:36;;;;;;;17.00;10.20;;;1.00;99.90;;;;;;5042907;28;20389;-72
2022/03/08 06:52:02;;;;;;;19.77;10.77;;;1.00;99.90;;;;;;5046976;28;20041;-72
2022/03/08 06:54:27;;;;;;;18.60;10.13;;;0.90;99.90;;;;;;5048871;28;20045;-72
2022/03/08 06:56:53;;;;;;;17.85;9.52;;;0.90;99.90;;;;;;5035100;28;20036;-72
2022/03/08 06:59:19;;;;;;;17.77;10.27;;;1.00;99.90;;;;;;5049537;28;20045;-72
2022/03/08 07:01:44;;;;;;;18.90;10.88;;;1.00;99.90;;;;;;5052440;28;20513;-72
2022/03/08 07:04:10;;;;;;;18.83;10.38;;;1.10;99.90;;;;;;5045250;28;20124;-72
2022/03/08 07:06:35;;;;;;;18.40;10.25;;;1.10;99.90;;;;;;5045989;28;20041;-72
2022/03/08 07:09:02;;;;;;;16.63;9.80;;;1.10;99.90;;;;;;5035078;28;20122;-72
2022/03/08 07:11:27;;;;;;;18.95;10.68;;;1.00;99.90;;;;;;5034551;28;20107;-73
2022/03/08 07:13:53;;;;;;;18.83;10.15;;;1.10;99.90;;;;;;5050377;28;20037;-73
2022/03/08 07:16:18;;;;;;;18.02;9.68;;;1.10;99.90;;;;;;5052247;28;20045;-73
2022/03/08 07:18:44;;;;;;;17.20;10.07;;;1.20;99.90;;;;;;5049382;28;20029;-73
2022/03/08 07:21:10;;;;;;;18.13;10.00;;;1.20;99.90;;;;;;5052588;28;20037;-73
2022/03/08 07:23:35;;;;;;;17.38;10.50;;;1.20;99.90;;;;;;5035356;28;20041;-73
2022/03/08 07:26:01;;;;;;;17.55;10.35;;;1.40;99.90;;;;;;5052228;28;20033;-73
2022/03/08 07:28:26;;;;;;;17.70;10.52;;;1.40;99.90;;;;;;5051343;28;20040;-73
2022/03/08 07:30:52;;;;;;;18.15;9.43;;;1.50;99.90;;;;;;5051935;28;20037;-73
2022/03/08 07:33:18;;;;;;;18.23;9.95;;;1.60;99.90;;;;;;5034750;28;20039;-73
2022/03/08 07:35:43;;;;;;;17.50;10.30;;;1.70;99.90;;;;;;5034872;28;20057;-73
2022/03/08 07:38:09;;;;;;;17.10;9.77;;;1.90;99.90;;;;;;5051683;28;20099;-73
2022/03/08 07:40:35;;;;;;;18.85;11.50;;;1.90;99.90;;;;;;5049010;28;20507;-73
2022/03/08 07:43:02;;;;;;;15.57;9.15;;;2.00;99.90;;;;;;5051253;28;20404;-73
2022/03/08 07:45:28;;;;;;;16.92;9.80;;;2.10;99.90;;;;;;5052250;28;20033;-73
2022/03/08 07:47:54;;;;;;;21.05;10.35;;;2.20;99.90;;;;;;5033818;28;20400;-74
2022/03/08 07:50:19;;;;;;;17.23;9.07;;;2.20;99.90;;;;;;5051591;28;20037;-74
2022/03/08 07:52:45;;;;;;;16.67;8.68;;;2.40;99.90;;;;;;5041841;28;20032;-73
2022/03/08 07:55:10;;;;;;;16.55;10.43;;;2.50;99.90;;;;;;5051740;28;20041;-73
2022/03/08 07:57:36;;;;;;;16.67;9.02;;;2.60;99.90;;;;;;5051445;28;20563;-74
2022/03/08 08:00:04;;;;;;;17.10;9.73;;;2.80;99.90;;;;;;5051881;28;20055;-73
2022/03/08 08:02:30;;;;;;;16.90;9.88;;;2.90;99.90;;;;;;5051208;28;20048;-73
2022/03/08 08:04:56;;;;;;;15.85;9.23;;;3.00;99.90;;;;;;5051643;28;20048;-73
2022/03/08 08:07:22;;;;;;;15.48;8.73;;;3.10;99.90;;;;;;5034665;28;20044;-74
2022/03/08 08:09:47;;;;;;;15.55;8.98;;;3.20;99.90;;;;;;5050119;28;20052;-73
2022/03/08 08:12:13;;;;;;;15.13;8.95;;;3.40;99.90;;;;;;5054947;28;20094;-74
2022/03/08 08:14:39;;;;;;;15.98;9.05;;;3.40;99.90;;;;;;5051774;28;20040;-74
2022/03/08 08:17:05;;;;;;;16.25;8.80;;;3.60;99.90;;;;;;5034250;28;20051;-74
2022/03/08 08:19:31;;;;;;;13.90;8.25;;;3.70;99.90;;;;;;5051361;28;20128;-73
2022/03/08 08:21:57;;;;;;;15.38;8.60;;;3.70;99.90;;;;;;5051335;28;20400;-74
2022/03/08 08:24:22;;;;;;;14.15;8.73;;;3.80;99.90;;;;;;5049364;28;20044;-73
2022/03/08 08:26:48;;;;;;;16.52;8.85;;;3.80;99.90;;;;;;5050730;28;20037;-74
2022/03/08 08:29:14;;;;;;;13.35;7.38;;;3.90;99.90;;;;;;5067485;28;20045;-74
2022/03/08 08:31:39;;;;;;;13.73;8.32;;;4.00;99.90;;;;;;5051368;28;20409;-73
2022/03/08 08:34:05;;;;;;;14.32;9.15;;;4.00;99.90;;;;;;5034497;28;20029;-73
2022/03/08 08:36:31;;;;;;;13.98;8.77;;;4.00;99.90;;;;;;5051344;28;20095;-73
2022/03/08 08:38:56;;;;;;;14.23;8.55;;;4.10;99.90;;;;;;5051136;28;20045;-73
2022/03/08 08:41:22;;;;;;;14.50;8.45;;;4.20;99.90;;;;;;5047161;28;20572;-73
2022/03/08 08:43:47;;;;;;;15.80;8.45;;;4.30;99.90;;;;;;5031662;28;20073;-73
2022/03/08 08:46:13;;;;;;;15.02;9.45;;;4.30;99.90;;;;;;5043510;28;20033;-73
2022/03/08 08:48:39;;;;;;;13.57;8.43;;;4.50;99.90;;;;;;5021760;28;20040;-73
2022/03/08 08:51:04;;;;;;;13.73;8.13;;;4.50;99.90;;;;;;5051530;28;20511;-73
2022/03/08 08:53:30;;;;;;;13.85;7.35;;;4.70;99.90;;;;;;5066953;28;20524;-73
2022/03/08 08:55:55;;;;;;;13.80;7.95;;;4.90;99.90;;;;;;5053228;28;20041;-73
2022/03/08 08:58:21;;;;;;;13.07;7.25;;;4.90;99.90;;;;;;5054034;28;20047;-73
2022/03/08 09:00:46;;;;;;;14.32;8.40;;;5.00;99.90;;;;;;5054136;28;20033;-73
2022/03/08 09:03:14;;;;;;;13.27;8.70;;;5.20;99.90;;;;;;5036237;28;20078;-73
2022/03/08 09:05:43;;;;;;;14.40;8.23;;;5.30;99.60;;;;;;5050291;28;20037;-73
2022/03/08 09:08:09;;;;;;;15.38;8.23;;;5.30;99.90;;;;;;5052124;28;20037;-73
2022/03/08 09:10:35;;;;;;;14.00;8.70;;;5.40;99.90;;;;;;5054087;28;20471;-73
2022/03/08 09:13:00;;;;;;;15.63;8.77;;;5.60;99.40;;;;;;5054225;28;20416;-73
2022/03/08 09:15:26;;;;;;;12.50;7.15;;;5.70;99.60;;;;;;5055021;28;20040;-73
2022/03/08 09:17:52;;;;;;;11.75;6.63;;;5.80;99.00;;;;;;5053844;28;20128;-73
2022/03/08 09:20:17;;;;;;;11.50;7.22;;;6.00;97.00;;;;;;5053343;28;20128;-73
2022/03/08 09:22:44;;;;;;;11.35;6.72;;;6.10;96.90;;;;;;5054811;28;20056;-73
2022/03/08 09:25:09;;;;;;;17.38;8.52;;;6.10;97.10;;;;;;5051238;28;20498;-73
2022/03/08 09:27:35;;;;;;;13.23;8.43;;;6.10;97.90;;;;;;5054428;28;20039;-73
2022/03/08 09:30:07;;;;;;;14.55;8.38;;;6.20;98.20;;;;;;5054117;28;20106;-73
2022/03/08 09:32:33;;;;;;;;;;;6.40;97.50;;;;;;5038114;28;20037;-73
2022/03/08 09:34:58;;;;;;;13.40;7.63;;;6.40;97.00;;;;;;5053476;28;19916;-73
2022/03/08 09:37:24;;;;;;;11.82;7.00;;;6.60;97.20;;;;;;5054376;28;20110;-73
2022/03/08 09:39:50;;;;;;;12.05;7.65;;;6.60;96.90;;;;;;5037000;28;20036;-73
2022/03/08 09:42:17;;;;;;;14.20;8.10;;;6.80;96.30;;;;;;5045136;28;20111;-73
2022/03/08 09:44:43;;;;;;;12.52;7.90;;;7.00;95.40;;;;;;5037398;28;20041;-73
2022/03/08 09:47:09;;;;;;;11.75;6.93;;;7.00;94.20;;;;;;5037701;28;20032;-73
2022/03/08 09:49:34;;;;;;;12.30;8.68;;;7.10;94.50;;;;;;5053720;28;20186;-73
2022/03/08 09:52:00;;;;;;;12.25;7.82;;;7.20;94.40;;;;;;5054754;28;20047;-73
2022/03/08 09:54:26;;;;;;;13.18;8.35;;;7.20;93.80;;;;;;5036601;28;20075;-73
2022/03/08 09:56:51;;;;;;;13.00;7.68;;;7.40;94.00;;;;;;5053873;28;20076;-73
2022/03/08 09:59:18;;;;;;;11.32;6.88;;;7.50;92.40;;;;;;5051051;28;20042;-73
2022/03/08 10:01:45;;;;;;;11.40;7.30;;;7.60;91.80;;;;;;5070518;28;20524;-73
2022/03/08 10:04:18;;;;;;;10.45;6.07;;;7.70;91.60;;;;;;5053280;28;20033;-73
2022/03/08 10:06:46;;;;;;;11.68;6.70;;;7.80;87.20;;;;;;5053872;28;20033;-73
2022/03/08 10:09:17;;;;;;;9.27;5.35;;;7.90;84.60;;;;;;5037085;28;20444;-73
2022/03/08 10:11:43;;;;;;;9.95;5.45;;;8.00;84.00;;;;;;5052955;28;20072;-73
2022/03/08 10:14:14;;;;;;;11.02;5.95;;;8.20;80.60;;;;;;5052565;28;20437;-73
2022/03/08 10:16:44;;;;;;;9.93;5.80;;;8.20;72.60;;;;;;5082887;28;20493;-73
2022/03/08 10:19:11;;;;;;;9.85;5.82;;;8.20;75.30;;;;;;5052707;28;20063;-73
2022/03/08 10:21:47;;;;;;;8.20;4.75;;;8.30;74.90;;;;;;5070791;28;20503;-73
2022/03/08 10:24:14;;;;;;;9.68;4.70;;;8.40;73.30;;;;;;5048176;28;20398;-73
2022/03/08 10:26:59;;;;;;;9.98;6.05;;;8.50;73.00;;;;;;5053201;28;20041;-73
2022/03/08 10:29:32;;;;;;;9.20;6.05;;;8.60;72.00;;;;;;5048797;28;20511;-74
2022/03/08 10:32:19;;;;;;;9.80;5.22;;;8.60;69.10;;;;;;5052659;28;20048;-73
2022/03/08 10:34:48;;;;;;;10.98;5.10;;;8.70;70.60;;;;;;5048219;28;20041;-73
2022/03/08 10:37:20;;;;;;;9.43;5.20;;;8.80;71.50;;;;;;5052395;28;20158;-73
2022/03/08 10:39:51;;;;;;;;;;;8.90;71.50;;;;;;5032440;28;20053;-74
2022/03/08 10:42:23;;;;;;;10.30;5.60;;;9.00;69.70;;;;;;5051173;28;19916;-73
2022/03/08 10:44:50;;;;;;;9.45;4.50;;;9.10;68.90;;;;;;5034348;28;20122;-73
2022/03/08 10:47:16;;;;;;;8.70;5.78;;;9.40;67.70;;;;;;5050996;28;20241;-74
2022/03/08 10:49:55;;;;;;;9.68;6.05;;;9.40;70.20;;;;;;5035730;28;20386;-73
2022/03/08 10:52:38;;;;;;;9.82;5.85;;;9.50;70.50;;;;;;5036350;28;20041;-74
2022/03/08 10:55:19;;;;;;;9.75;5.38;;;9.60;71.20;;;;;;5052642;28;20119;-74
2022/03/08 10:57:55;;;;;;;20.50;7.17;;;9.70;65.30;;;;;;5052424;28;20534;-73
2022/03/08 11:00:29;;;;;;;14.07;5.78;;;9.80;69.00;;;;;;5051422;28;20720;-74
2022/03/08 11:02:59;;;;;;;10.45;4.88;;;9.90;64.90;;;;;;5052759;28;20043;-74
2022/03/08 11:05:27;;;;;;;8.88;4.93;;;9.90;62.40;;;;;;5051374;28;20124;-74
2022/03/08 11:07:54;;;;;;;8.90;5.15;;;9.90;62.70;;;;;;5068062;28;20546;-73
2022/03/08 11:10:20;;;;;;;9.02;4.80;;;10.00;61.50;;;;;;5041453;28;20033;-74
2022/03/08 11:12:47;;;;;;;9.95;4.82;;;10.00;62.80;;;;;;5035893;28;20053;-73
2022/03/08 11:15:15;;;;;;;9.70;6.05;;;9.90;63.60;;;;;;5034688;28;20041;-73
2022/03/08 11:17:46;;;;;;;14.02;6.25;;;10.00;65.70;;;;;;5049470;28;20477;-74
2022/03/08 11:20:12;;;;;;;11.20;6.80;;;10.00;66.10;;;;;;5051454;28;20048;-74
2022/03/08 11:22:39;;;;;;;12.93;5.70;;;9.90;66.50;;;;;;5041463;28;20033;-74
2022/03/08 11:25:08;;;;;;;10.20;5.80;;;10.00;65.80;;;;;;5048887;28;20385;-74
2022/03/08 11:27:35;;;;;;;10.00;5.35;;;10.00;63.80;;;;;;5059523;28;20032;-74
2022/03/08 11:30:03;;;;;;;9.35;5.40;;;10.00;62.60;;;;;;5033352;28;20126;-74
2022/03/08 11:32:37;;;;;;;5.75;2.95;;;10.10;63.00;;;;;;5051436;28;20183;-74
2022/03/08 11:35:09;;;;;;;9.98;4.68;;;10.20;62.20;;;;;;5055293;28;20037;-74
2022/03/08 11:37:37;;;;;;;8.25;5.32;;;10.10;61.80;;;;;;5066507;28;20063;-74
2022/03/08 11:40:11;;;;;;;9.75;5.32;;;10.00;61.80;;;;;;5050057;28;20489;-73
2022/03/08 11:42:41;;;;;;;8.70;4.70;;;9.90;63.60;;;;;;5018983;28;20036;-74
2022/03/08 11:45:17;;;;;;;8.48;5.10;;;9.90;61.00;;;;;;5035689;28;20069;-74
2022/03/08 11:47:55;;;;;;;7.57;4.15;;;9.90;61.10;;;;;;5052256;28;20075;-74
2022/03/08 11:50:33;;;;;;;8.50;5.05;;;9.90;61.40;;;;;;5034884;28;20041;-74
2022/03/08 11:53:08;;;;;;;7.95;4.25;;;9.90;62.80;;;;;;5035305;28;20187;-73
2022/03/08 11:55:35;;;;;;;8.27;4.75;;;9.90;61.10;;;;;;5035458;28;20116;-74
2022/03/08 11:58:06;;;;;;;8.70;4.80;;;10.00;61.00;;;;;;5050797;28;20048;-73
2022/03/08 12:00:40;;;;;;;9.90;4.60;;;9.90;62.60;;;;;;5034952;28;20048;-73
2022/03/08 12:03:18;;;;;;;9.45;3.90;;;9.90;63.80;;;;;;5034496;28;20075;-73
2022/03/08 12:05:58;;;;;;;8.50;4.20;;;10.00;61.40;;;;;;5063666;28;20037;-74
2022/03/08 12:08:27;;;;;;;7.50;4.53;;;10.00;60.10;;;;;;5051298;28;20045;-74
2022/03/08 12:10:58;;;;;;;8.23;4.07;;;10.00;60.10;;;;;;5051625;28;20118;-74
2022/03/08 12:13:32;;;;;;;7.25;3.38;;;9.90;61.90;;;;;;5068658;28;20041;-74
2022/03/08 12:16:10;;;;;;;8.48;4.28;;;9.90;60.80;;;;;;5051755;28;20048;-74
2022/03/08 12:18:45;;;;;;;7.93;3.75;;;10.00;60.80;;;;;;5051353;28;20090;-74
2022/03/08 12:21:17;;;;;;;8.00;3.83;;;10.00;60.00;;;;;;5050541;28;20044;-74
2022/03/08 12:23:47;;;;;;;8.48;4.68;;;10.10;59.60;;;;;;5068550;28;20474;-74
2022/03/08 12:26:36;;;;;;;8.77;3.60;;;10.00;59.20;;;;;;5067551;28;20105;-74
2022/03/08 12:29:14;;;;;;;6.80;3.20;;;10.10;58.10;;;;;;5032741;28;20090;-74
2022/03/08 12:31:58;;;;;;;7.60;3.55;;;10.00;58.20;;;;;;5037414;28;20045;-74
2022/03/08 12:34:33;;;;;;;6.75;3.25;;;10.10;58.30;;;;;;5039281;28;20037;-74
2022/03/08 12:37:12;;;;;;;7.50;4.10;;;10.10;57.50;;;;;;5070546;28;20084;-74
2022/03/08 12:39:49;;;;;;;6.57;3.67;;;10.00;58.90;;;;;;5050683;28;20076;-74
2022/03/08 12:42:29;;;;;;;7.72;3.30;;;10.10;59.30;;;;;;5060652;28;20033;-74
2022/03/08 12:44:57;;;;;;;7.88;3.78;;;10.20;56.80;;;;;;5046658;28;20029;-74
2022/03/08 12:47:25;;;;;;;8.48;4.05;;;10.20;55.60;;;;;;5035352;28;20132;-74